sensor_id;sensor_type;location;lat;lon;timestamp;pressure;altitude;pressure_sealevel;temperature;humidity
29733;BME280;16643;43.158;25.302;2023-05-07T00:01:43;98318.91;;;13.00;nan
29733;BME280;16643;43.158;25.302;2023-05-07T00:04:08;98271.47;;;12.65;nan
29733;BME280;16643;43.158;25.302;2023-05-07T00:06:34;98309.16;;;12.82;nan
29733;BME280;16643;43.158;25.302;2023-05-07T00:09:00;98293.78;;;12.74;nan
29733;BME280;16643;43.158;25.302;2023-05-07T00:11:27;98344.84;;;13.04;nan
29733;BME280;16643;43.158;25.302;2023-05-07T00:13:53;98326.03;;;12.96;nan
29733;BME280;16643;43.158;25.302;2023-05-07T00:16:19;98310.63;;;12.89;nan
29733;BME280;16643;43.158;25.302;2023-05-07T00:18:44;98331.56;;;13.10;nan
29733;BME280;16643;43.158;25.302;2023-05-07T00:21:10;98313.75;;;12.98;nan
29733;BME280;16643;43.158;25.302;2023-05-07T00:23:36;98356.72;;;13.13;nan
29733;BME280;16643;43.158;25.302;2023-05-07T00:26:02;98343.50;;;13.19;nan
29733;BME280;16643;43.158;25.302;2023-05-07T00:28:27;98337.66;;;13.11;nan
29733;BME280;16643;43.158;25.302;2023-05-07T00:30:53;98333.41;;;13.08;nan
29733;BME280;16643;43.158;25.302;2023-05-07T00:33:18;98333.63;;;13.02;nan
29733;BME280;16643;43.158;25.302;2023-05-07T00:35:46;98330.44;;;12.94;nan
29733;BME280;16643;43.158;25.302;2023-05-07T00:38:11;98346.09;;;12.94;nan
29733;BME280;16643;43.158;25.302;2023-05-07T00:40:37;98304.31;;;12.71;nan
29733;BME280;16643;43.158;25.302;2023-05-07T00:43:02;98344.97;;;13.01;nan
29733;BME280;16643;43.158;25.302;2023-05-07T00:45:29;98358.34;;;12.92;nan
29733;BME280;16643;43.158;25.302;2023-05-07T00:48:01;98336.94;;;12.83;nan
29733;BME280;16643;43.158;25.302;2023-05-07T00:50:28;98319.78;;;12.76;nan
29733;BME280;16643;43.158;25.302;2023-05-07T00:52:55;98335.91;;;12.87;nan
29733;BME280;16643;43.158;25.302;2023-05-07T00:55:21;98339.47;;;12.86;nan
29733;BME280;16643;43.158;25.302;2023-05-07T00:57:47;98308.00;;;12.65;nan
29733;BME280;16643;43.158;25.302;2023-05-07T01:00:13;98324.28;;;12.72;nan
29733;BME280;16643;43.158;25.302;2023-05-07T01:02:39;98328.28;;;12.82;nan
29733;BME280;16643;43.158;25.302;2023-05-07T01:05:07;98316.09;;;12.58;nan
29733;BME280;16643;43.158;25.302;2023-05-07T01:07:34;98320.56;;;12.54;nan
29733;BME280;16643;43.158;25.302;2023-05-07T01:10:02;98330.13;;;12.29;nan
29733;BME280;16643;43.158;25.302;2023-05-07T01:12:28;98346.94;;;12.45;nan
29733;BME280;16643;43.158;25.302;2023-05-07T01:14:55;98311.47;;;12.41;nan
29733;BME280;16643;43.158;25.302;2023-05-07T01:17:20;98311.72;;;12.33;nan
29733;BME280;16643;43.158;25.302;2023-05-07T01:19:46;98313.47;;;12.33;nan
29733;BME280;16643;43.158;25.302;2023-05-07T01:22:15;98323.72;;;12.39;nan
29733;BME280;16643;43.158;25.302;2023-05-07T01:24:42;98316.25;;;12.28;nan
29733;BME280;16643;43.158;25.302;2023-05-07T01:27:08;98304.34;;;12.20;nan
29733;BME280;16643;43.158;25.302;2023-05-07T01:29:33;98323.91;;;12.33;nan
29733;BME280;16643;43.158;25.302;2023-05-07T01:32:00;98330.19;;;12.27;nan
29733;BME280;16643;43.158;25.302;2023-05-07T01:34:31;98320.34;;;12.09;nan
29733;BME280;16643;43.158;25.302;2023-05-07T01:36:58;98325.56;;;12.09;nan
29733;BME280;16643;43.158;25.302;2023-05-07T01:39:25;98292.59;;;12.08;nan
29733;BME280;16643;43.158;25.302;2023-05-07T01:41:54;98302.91;;;12.11;nan
29733;BME280;16643;43.158;25.302;2023-05-07T01:44:21;98310.91;;;12.07;nan
29733;BME280;16643;43.158;25.302;2023-05-07T01:46:47;98265.44;;;11.89;nan
29733;BME280;16643;43.158;25.302;2023-05-07T01:49:14;98294.41;;;12.06;nan
29733;BME280;16643;43.158;25.302;2023-05-07T01:51:39;98276.63;;;11.92;nan
29733;BME280;16643;43.158;25.302;2023-05-07T01:54:05;98300.34;;;12.10;nan
29733;BME280;16643;43.158;25.302;2023-05-07T01:56:31;98285.47;;;11.87;nan
29733;BME280;16643;43.158;25.302;2023-05-07T01:58:57;98304.72;;;12.09;nan
29733;BME280;16643;43.158;25.302;2023-05-07T02:01:23;98280.31;;;11.85;nan
29733;BME280;16643;43.158;25.302;2023-05-07T02:03:49;98262.16;;;11.84;nan
29733;BME280;16643;43.158;25.302;2023-05-07T02:06:14;98284.22;;;11.98;nan
29733;BME280;16643;43.158;25.302;2023-05-07T02:08:40;98285.44;;;11.88;nan
29733;BME280;16643;43.158;25.302;2023-05-07T02:11:06;98262.09;;;11.85;nan
29733;BME280;16643;43.158;25.302;2023-05-07T02:13:32;98262.03;;;11.87;nan
29733;BME280;16643;43.158;25.302;2023-05-07T02:15:58;98266.59;;;11.80;nan
29733;BME280;16643;43.158;25.302;2023-05-07T02:18:24;98281.94;;;11.89;nan
29733;BME280;16643;43.158;25.302;2023-05-07T02:20:50;98262.00;;;11.88;nan
29733;BME280;16643;43.158;25.302;2023-05-07T02:23:15;98282.81;;;11.88;nan
29733;BME280;16643;43.158;25.302;2023-05-07T02:25:41;98266.03;;;11.71;nan
29733;BME280;16643;43.158;25.302;2023-05-07T02:28:06;98287.72;;;11.71;nan
29733;BME280;16643;43.158;25.302;2023-05-07T02:30:32;98298.94;;;11.73;nan
29733;BME280;16643;43.158;25.302;2023-05-07T02:32:58;98267.31;;;11.57;nan
29733;BME280;16643;43.158;25.302;2023-05-07T02:35:25;98277.00;;;11.52;nan
29733;BME280;16643;43.158;25.302;2023-05-07T02:37:51;98283.19;;;11.50;nan
29733;BME280;16643;43.158;25.302;2023-05-07T02:40:16;98302.31;;;11.49;nan
29733;BME280;16643;43.158;25.302;2023-05-07T02:42:42;98270.25;;;11.47;nan
29733;BME280;16643;43.158;25.302;2023-05-07T02:45:08;98261.06;;;11.35;nan
29733;BME280;16643;43.158;25.302;2023-05-07T02:47:34;98277.06;;;11.51;nan
29733;BME280;16643;43.158;25.302;2023-05-07T02:49:59;98264.25;;;11.45;nan
29733;BME280;16643;43.158;25.302;2023-05-07T02:52:25;98278.56;;;11.30;nan
29733;BME280;16643;43.158;25.302;2023-05-07T02:54:51;98240.84;;;11.17;nan
29733;BME280;16643;43.158;25.302;2023-05-07T02:57:16;98204.19;;;10.95;nan
29733;BME280;16643;43.158;25.302;2023-05-07T02:59:42;98252.19;;;11.14;nan
29733;BME280;16643;43.158;25.302;2023-05-07T03:02:08;98258.72;;;11.27;nan
29733;BME280;16643;43.158;25.302;2023-05-07T03:04:33;98267.25;;;11.31;nan
29733;BME280;16643;43.158;25.302;2023-05-07T03:06:59;98284.28;;;11.41;nan
29733;BME280;16643;43.158;25.302;2023-05-07T03:09:25;98221.59;;;10.93;nan
29733;BME280;16643;43.158;25.302;2023-05-07T03:11:51;98285.19;;;11.12;nan
29733;BME280;16643;43.158;25.302;2023-05-07T03:14:17;98289.50;;;11.13;nan
29733;BME280;16643;43.158;25.302;2023-05-07T03:16:42;98262.94;;;11.02;nan
29733;BME280;16643;43.158;25.302;2023-05-07T03:19:08;98274.72;;;11.14;nan
29733;BME280;16643;43.158;25.302;2023-05-07T03:21:33;98284.91;;;11.21;nan
29733;BME280;16643;43.158;25.302;2023-05-07T03:24:00;98275.25;;;11.25;nan
29733;BME280;16643;43.158;25.302;2023-05-07T03:26:25;98265.03;;;11.19;nan
29733;BME280;16643;43.158;25.302;2023-05-07T03:28:51;98288.81;;;11.36;nan
29733;BME280;16643;43.158;25.302;2023-05-07T03:31:17;98281.13;;;11.32;nan
29733;BME280;16643;43.158;25.302;2023-05-07T03:34:09;98292.31;;;11.35;nan
29733;BME280;16643;43.158;25.302;2023-05-07T03:36:34;98290.03;;;11.24;nan
29733;BME280;16643;43.158;25.302;2023-05-07T03:39:00;98246.41;;;11.05;nan
29733;BME280;16643;43.158;25.302;2023-05-07T03:41:26;98294.13;;;11.32;nan
29733;BME280;16643;43.158;25.302;2023-05-07T03:43:51;98279.56;;;11.26;nan
29733;BME280;16643;43.158;25.302;2023-05-07T03:46:17;98308.44;;;11.46;nan
29733;BME280;16643;43.158;25.302;2023-05-07T03:48:42;98303.88;;;11.53;nan
29733;BME280;16643;43.158;25.302;2023-05-07T03:51:08;98253.59;;;11.24;nan
29733;BME280;16643;43.158;25.302;2023-05-07T03:53:34;98292.50;;;11.57;nan
29733;BME280;16643;43.158;25.302;2023-05-07T03:55:59;98286.56;;;11.52;nan
29733;BME280;16643;43.158;25.302;2023-05-07T03:58:25;98288.81;;;11.62;nan
29733;BME280;16643;43.158;25.302;2023-05-07T04:00:50;98286.13;;;11.65;nan
29733;BME280;16643;43.158;25.302;2023-05-07T04:03:16;98311.69;;;11.82;nan
29733;BME280;16643;43.158;25.302;2023-05-07T04:05:42;98252.53;;;11.58;nan
29733;BME280;16643;43.158;25.302;2023-05-07T04:08:08;98283.84;;;11.84;nan
29733;BME280;16643;43.158;25.302;2023-05-07T04:10:33;98294.28;;;12.09;nan
29733;BME280;16643;43.158;25.302;2023-05-07T04:12:59;98281.94;;;12.16;nan
29733;BME280;16643;43.158;25.302;2023-05-07T04:15:24;98295.84;;;12.41;nan
29733;BME280;16643;43.158;25.302;2023-05-07T04:17:50;98302.69;;;12.44;nan
29733;BME280;16643;43.158;25.302;2023-05-07T04:20:16;98286.41;;;12.62;nan
29733;BME280;16643;43.158;25.302;2023-05-07T04:22:43;98330.69;;;12.87;nan
29733;BME280;16643;43.158;25.302;2023-05-07T04:25:09;98332.47;;;13.09;nan
29733;BME280;16643;43.158;25.302;2023-05-07T04:27:35;98339.56;;;13.31;nan
29733;BME280;16643;43.158;25.302;2023-05-07T04:30:02;98268.16;;;13.08;nan
29733;BME280;16643;43.158;25.302;2023-05-07T04:32:28;98301.38;;;13.28;nan
29733;BME280;16643;43.158;25.302;2023-05-07T04:34:57;98324.19;;;13.68;nan
29733;BME280;16643;43.158;25.302;2023-05-07T04:37:25;98348.56;;;13.91;nan
29733;BME280;16643;43.158;25.302;2023-05-07T04:39:51;98324.06;;;13.93;nan
29733;BME280;16643;43.158;25.302;2023-05-07T04:42:17;98346.28;;;14.25;nan
29733;BME280;16643;43.158;25.302;2023-05-07T04:44:45;98333.75;;;14.33;nan
29733;BME280;16643;43.158;25.302;2023-05-07T04:47:11;98316.00;;;14.41;nan
29733;BME280;16643;43.158;25.302;2023-05-07T04:49:40;98330.34;;;14.53;nan
29733;BME280;16643;43.158;25.302;2023-05-07T04:52:05;98340.91;;;14.70;nan
29733;BME280;16643;43.158;25.302;2023-05-07T04:54:31;98337.38;;;14.92;nan
29733;BME280;16643;43.158;25.302;2023-05-07T04:56:57;98340.34;;;15.03;nan
29733;BME280;16643;43.158;25.302;2023-05-07T04:59:22;98361.84;;;15.30;nan
29733;BME280;16643;43.158;25.302;2023-05-07T05:01:48;98360.03;;;15.50;nan
29733;BME280;16643;43.158;25.302;2023-05-07T05:04:13;98314.28;;;15.39;nan
29733;BME280;16643;43.158;25.302;2023-05-07T05:06:39;98354.81;;;15.69;nan
29733;BME280;16643;43.158;25.302;2023-05-07T05:09:05;98316.66;;;15.64;nan
29733;BME280;16643;43.158;25.302;2023-05-07T05:11:31;98355.00;;;16.02;nan
29733;BME280;16643;43.158;25.302;2023-05-07T05:13:58;98365.66;;;16.16;nan
29733;BME280;16643;43.158;25.302;2023-05-07T05:16:24;98358.63;;;16.17;nan
29733;BME280;16643;43.158;25.302;2023-05-07T05:18:50;98351.09;;;16.28;nan
29733;BME280;16643;43.158;25.302;2023-05-07T05:21:17;98353.56;;;16.48;nan
29733;BME280;16643;43.158;25.302;2023-05-07T05:23:43;98366.53;;;16.70;nan
29733;BME280;16643;43.158;25.302;2023-05-07T05:26:08;98345.41;;;16.54;nan
29733;BME280;16643;43.158;25.302;2023-05-07T05:28:34;98344.56;;;16.71;nan
29733;BME280;16643;43.158;25.302;2023-05-07T05:31:00;98337.28;;;16.93;nan
29733;BME280;16643;43.158;25.302;2023-05-07T05:33:25;98350.41;;;17.11;nan
29733;BME280;16643;43.158;25.302;2023-05-07T05:35:51;98354.66;;;17.29;nan
29733;BME280;16643;43.158;25.302;2023-05-07T05:38:16;98365.38;;;17.41;nan
29733;BME280;16643;43.158;25.302;2023-05-07T05:40:42;98376.59;;;17.61;nan
29733;BME280;16643;43.158;25.302;2023-05-07T05:43:08;98362.78;;;17.57;nan
29733;BME280;16643;43.158;25.302;2023-05-07T05:45:33;98380.13;;;17.77;nan
29733;BME280;16643;43.158;25.302;2023-05-07T05:47:59;98383.94;;;-142.82;nan
29733;BME280;16643;43.158;25.302;2023-05-07T05:50:25;98372.41;;;17.90;nan
29733;BME280;16643;43.158;25.302;2023-05-07T05:52:50;98380.72;;;18.13;nan
29733;BME280;16643;43.158;25.302;2023-05-07T05:55:16;98344.31;;;17.90;nan
29733;BME280;16643;43.158;25.302;2023-05-07T05:57:42;98372.16;;;17.94;nan
29733;BME280;16643;43.158;25.302;2023-05-07T06:00:08;98373.00;;;17.95;nan
29733;BME280;16643;43.158;25.302;2023-05-07T06:02:33;98355.88;;;18.03;nan
29733;BME280;16643;43.158;25.302;2023-05-07T06:04:59;98378.56;;;18.20;nan
29733;BME280;16643;43.158;25.302;2023-05-07T06:07:25;98376.88;;;18.35;nan
29733;BME280;16643;43.158;25.302;2023-05-07T06:09:51;98375.22;;;18.48;nan
29733;BME280;16643;43.158;25.302;2023-05-07T06:12:16;98360.38;;;18.31;nan
29733;BME280;16643;43.158;25.302;2023-05-07T06:14:44;98376.09;;;18.48;nan
29733;BME280;16643;43.158;25.302;2023-05-07T06:17:10;98379.72;;;18.46;nan
29733;BME280;16643;43.158;25.302;2023-05-07T06:19:36;98378.72;;;18.48;nan
29733;BME280;16643;43.158;25.302;2023-05-07T06:22:01;98390.03;;;18.80;nan
29733;BME280;16643;43.158;25.302;2023-05-07T06:24:28;98367.09;;;18.82;nan
29733;BME280;16643;43.158;25.302;2023-05-07T06:26:54;98392.38;;;18.85;nan
29733;BME280;16643;43.158;25.302;2023-05-07T06:29:20;98392.44;;;19.13;nan
29733;BME280;16643;43.158;25.302;2023-05-07T06:31:45;98370.78;;;19.22;nan
29733;BME280;16643;43.158;25.302;2023-05-07T06:34:11;98395.09;;;19.42;nan
29733;BME280;16643;43.158;25.302;2023-05-07T06:36:40;98377.03;;;19.64;nan
29733;BME280;16643;43.158;25.302;2023-05-07T06:39:06;98386.00;;;19.62;nan
29733;BME280;16643;43.158;25.302;2023-05-07T06:41:31;98386.75;;;19.49;nan
29733;BME280;16643;43.158;25.302;2023-05-07T06:43:57;98371.72;;;19.21;nan
29733;BME280;16643;43.158;25.302;2023-05-07T06:46:23;98395.44;;;19.51;nan
29733;BME280;16643;43.158;25.302;2023-05-07T06:48:48;98380.41;;;19.66;nan
29733;BME280;16643;43.158;25.302;2023-05-07T06:51:14;98380.72;;;20.03;nan
29733;BME280;16643;43.158;25.302;2023-05-07T06:53:40;98354.59;;;19.71;nan
29733;BME280;16643;43.158;25.302;2023-05-07T06:56:06;98319.13;;;19.89;nan
29733;BME280;16643;43.158;25.302;2023-05-07T06:58:31;98367.00;;;20.24;nan
29733;BME280;16643;43.158;25.302;2023-05-07T07:00:57;98371.91;;;19.75;nan
29733;BME280;16643;43.158;25.302;2023-05-07T07:03:22;98358.97;;;19.99;nan
29733;BME280;16643;43.158;25.302;2023-05-07T07:05:52;98356.38;;;20.12;nan
29733;BME280;16643;43.158;25.302;2023-05-07T07:08:18;98372.09;;;19.86;nan
29733;BME280;16643;43.158;25.302;2023-05-07T07:10:43;98375.97;;;19.95;nan
29733;BME280;16643;43.158;25.302;2023-05-07T07:13:09;98351.63;;;19.90;nan
29733;BME280;16643;43.158;25.302;2023-05-07T07:15:35;98371.88;;;20.30;nan
29733;BME280;16643;43.158;25.302;2023-05-07T07:18:00;98374.75;;;20.67;nan
29733;BME280;16643;43.158;25.302;2023-05-07T07:20:26;98383.56;;;20.93;nan
29733;BME280;16643;43.158;25.302;2023-05-07T07:22:51;98368.56;;;20.93;nan
29733;BME280;16643;43.158;25.302;2023-05-07T07:25:17;98371.50;;;20.89;nan
29733;BME280;16643;43.158;25.302;2023-05-07T07:27:42;98388.16;;;21.16;nan
29733;BME280;16643;43.158;25.302;2023-05-07T07:30:08;98365.09;;;21.06;nan
29733;BME280;16643;43.158;25.302;2023-05-07T07:32:34;98358.31;;;21.14;nan
29733;BME280;16643;43.158;25.302;2023-05-07T07:35:00;98387.09;;;21.06;nan
29733;BME280;16643;43.158;25.302;2023-05-07T07:37:26;98389.88;;;21.30;nan
29733;BME280;16643;43.158;25.302;2023-05-07T07:39:51;98355.88;;;21.11;nan
29733;BME280;16643;43.158;25.302;2023-05-07T07:42:17;98420.13;;;21.51;nan
29733;BME280;16643;43.158;25.302;2023-05-07T07:44:43;98377.25;;;21.59;nan
29733;BME280;16643;43.158;25.302;2023-05-07T07:47:09;98398.59;;;21.81;nan
29733;BME280;16643;43.158;25.302;2023-05-07T07:49:34;98395.75;;;21.84;nan
29733;BME280;16643;43.158;25.302;2023-05-07T07:52:00;98383.88;;;20.88;nan
29733;BME280;16643;43.158;25.302;2023-05-07T07:54:26;98394.81;;;21.09;nan
29733;BME280;16643;43.158;25.302;2023-05-07T07:56:52;98405.91;;;21.14;nan
29733;BME280;16643;43.158;25.302;2023-05-07T07:59:17;98384.78;;;21.52;nan
29733;BME280;16643;43.158;25.302;2023-05-07T08:01:44;98391.56;;;21.44;nan
29733;BME280;16643;43.158;25.302;2023-05-07T08:04:10;98402.38;;;21.90;nan
29733;BME280;16643;43.158;25.302;2023-05-07T08:06:36;98387.53;;;21.38;nan
29733;BME280;16643;43.158;25.302;2023-05-07T08:09:02;98376.31;;;21.60;nan
29733;BME280;16643;43.158;25.302;2023-05-07T08:11:28;98378.00;;;21.61;nan
29733;BME280;16643;43.158;25.302;2023-05-07T08:13:54;98376.75;;;21.54;nan
29733;BME280;16643;43.158;25.302;2023-05-07T08:16:20;98389.63;;;21.58;nan
29733;BME280;16643;43.158;25.302;2023-05-07T08:18:46;98368.56;;;21.69;nan
29733;BME280;16643;43.158;25.302;2023-05-07T08:21:11;98365.00;;;22.07;nan
29733;BME280;16643;43.158;25.302;2023-05-07T08:23:37;98385.25;;;22.32;nan
29733;BME280;16643;43.158;25.302;2023-05-07T08:26:03;98378.22;;;22.07;nan
29733;BME280;16643;43.158;25.302;2023-05-07T08:28:28;98348.38;;;22.29;nan
29733;BME280;16643;43.158;25.302;2023-05-07T08:30:54;98350.75;;;22.44;nan
29733;BME280;16643;43.158;25.302;2023-05-07T08:33:21;98395.88;;;22.91;nan
29733;BME280;16643;43.158;25.302;2023-05-07T08:35:47;98380.25;;;22.75;nan
29733;BME280;16643;43.158;25.302;2023-05-07T08:38:13;98390.59;;;22.67;nan
29733;BME280;16643;43.158;25.302;2023-05-07T08:40:39;98371.63;;;22.60;nan
29733;BME280;16643;43.158;25.302;2023-05-07T08:43:06;98371.41;;;22.16;nan
29733;BME280;16643;43.158;25.302;2023-05-07T08:45:35;98372.53;;;22.00;nan
29733;BME280;16643;43.158;25.302;2023-05-07T08:48:05;98384.38;;;22.07;nan
29733;BME280;16643;43.158;25.302;2023-05-07T08:50:35;98374.28;;;22.36;nan
29733;BME280;16643;43.158;25.302;2023-05-07T08:53:02;98381.78;;;22.66;nan
29733;BME280;16643;43.158;25.302;2023-05-07T08:55:28;98347.25;;;22.44;nan
29733;BME280;16643;43.158;25.302;2023-05-07T08:57:54;98359.00;;;22.64;nan
29733;BME280;16643;43.158;25.302;2023-05-07T09:00:20;98329.94;;;22.62;nan
29733;BME280;16643;43.158;25.302;2023-05-07T09:02:45;98347.56;;;22.39;nan
29733;BME280;16643;43.158;25.302;2023-05-07T09:05:11;98359.06;;;22.51;nan
29733;BME280;16643;43.158;25.302;2023-05-07T09:07:37;98380.09;;;22.65;nan
29733;BME280;16643;43.158;25.302;2023-05-07T09:10:03;98361.78;;;23.08;nan
29733;BME280;16643;43.158;25.302;2023-05-07T09:12:29;98351.16;;;22.97;nan
29733;BME280;16643;43.158;25.302;2023-05-07T09:14:55;98351.69;;;23.25;nan
29733;BME280;16643;43.158;25.302;2023-05-07T09:17:21;98403.09;;;23.46;nan
29733;BME280;16643;43.158;25.302;2023-05-07T09:19:46;98338.75;;;23.09;nan
29733;BME280;16643;43.158;25.302;2023-05-07T09:22:13;98337.09;;;23.30;nan
29733;BME280;16643;43.158;25.302;2023-05-07T09:24:39;98358.97;;;23.67;nan
29733;BME280;16643;43.158;25.302;2023-05-07T09:27:05;98354.84;;;23.74;nan
29733;BME280;16643;43.158;25.302;2023-05-07T09:29:31;98351.56;;;23.48;nan
29733;BME280;16643;43.158;25.302;2023-05-07T09:32:05;98361.13;;;23.73;nan
29733;BME280;16643;43.158;25.302;2023-05-07T09:34:30;98347.06;;;23.94;nan
29733;BME280;16643;43.158;25.302;2023-05-07T09:37:06;98332.41;;;23.78;nan
29733;BME280;16643;43.158;25.302;2023-05-07T09:39:42;98350.16;;;24.21;nan
29733;BME280;16643;43.158;25.302;2023-05-07T09:42:08;98315.16;;;24.05;nan
29733;BME280;16643;43.158;25.302;2023-05-07T09:44:34;98339.94;;;24.05;nan
29733;BME280;16643;43.158;25.302;2023-05-07T09:47:04;98332.28;;;23.69;nan
29733;BME280;16643;43.158;25.302;2023-05-07T09:49:30;98316.56;;;22.99;nan
29733;BME280;16643;43.158;25.302;2023-05-07T09:52:00;98341.31;;;23.33;nan
29733;BME280;16643;43.158;25.302;2023-05-07T09:54:26;98280.19;;;23.12;nan
29733;BME280;16643;43.158;25.302;2023-05-07T09:56:55;98288.88;;;23.59;nan
29733;BME280;16643;43.158;25.302;2023-05-07T09:59:22;98314.31;;;23.61;nan
29733;BME280;16643;43.158;25.302;2023-05-07T10:01:48;98327.81;;;23.47;nan
29733;BME280;16643;43.158;25.302;2023-05-07T10:04:15;98327.22;;;23.55;nan
29733;BME280;16643;43.158;25.302;2023-05-07T10:06:42;98324.47;;;23.56;nan
29733;BME280;16643;43.158;25.302;2023-05-07T10:09:09;98300.88;;;23.85;nan
29733;BME280;16643;43.158;25.302;2023-05-07T10:11:35;98311.97;;;23.90;nan
29733;BME280;16643;43.158;25.302;2023-05-07T10:14:02;98326.84;;;23.70;nan
29733;BME280;16643;43.158;25.302;2023-05-07T10:16:33;98319.13;;;23.34;nan
29733;BME280;16643;43.158;25.302;2023-05-07T10:19:05;98304.06;;;23.57;nan
29733;BME280;16643;43.158;25.302;2023-05-07T10:21:35;98312.03;;;23.57;nan
29733;BME280;16643;43.158;25.302;2023-05-07T10:26:34;98318.19;;;24.11;nan
29733;BME280;16643;43.158;25.302;2023-05-07T10:29:07;98307.22;;;23.94;nan
29733;BME280;16643;43.158;25.302;2023-05-07T10:31:54;98305.38;;;24.05;nan
29733;BME280;16643;43.158;25.302;2023-05-07T10:34:21;98300.44;;;24.44;nan
29733;BME280;16643;43.158;25.302;2023-05-07T10:36:49;98286.69;;;24.39;nan
29733;BME280;16643;43.158;25.302;2023-05-07T10:39:15;98303.53;;;24.60;nan
29733;BME280;16643;43.158;25.302;2023-05-07T10:41:41;98260.91;;;24.18;nan
29733;BME280;16643;43.158;25.302;2023-05-07T10:44:07;98286.56;;;24.40;nan
29733;BME280;16643;43.158;25.302;2023-05-07T10:46:32;98275.63;;;24.54;nan
29733;BME280;16643;43.158;25.302;2023-05-07T10:51:27;98297.66;;;24.24;nan
29733;BME280;16643;43.158;25.302;2023-05-07T11:01:55;98299.59;;;23.57;nan
29733;BME280;16643;43.158;25.302;2023-05-07T11:04:23;98281.03;;;23.24;nan
29733;BME280;16643;43.158;25.302;2023-05-07T11:09:57;98285.22;;;23.60;nan
29733;BME280;16643;43.158;25.302;2023-05-07T11:15:08;98289.03;;;23.89;nan
29733;BME280;16643;43.158;25.302;2023-05-07T11:17:51;98290.91;;;24.09;nan
29733;BME280;16643;43.158;25.302;2023-05-07T11:20:17;98280.84;;;24.24;nan
29733;BME280;16643;43.158;25.302;2023-05-07T11:22:43;98255.03;;;24.15;nan
29733;BME280;16643;43.158;25.302;2023-05-07T11:25:09;98285.28;;;24.35;nan
29733;BME280;16643;43.158;25.302;2023-05-07T11:27:34;98271.22;;;23.69;nan
29733;BME280;16643;43.158;25.302;2023-05-07T11:30:00;98268.94;;;23.96;nan
29733;BME280;16643;43.158;25.302;2023-05-07T11:32:30;98259.66;;;24.02;nan
29733;BME280;16643;43.158;25.302;2023-05-07T11:34:58;98271.53;;;23.86;nan
29733;BME280;16643;43.158;25.302;2023-05-07T11:37:25;98266.97;;;24.09;nan
29733;BME280;16643;43.158;25.302;2023-05-07T11:40:02;98283.19;;;24.38;nan
29733;BME280;16643;43.158;25.302;2023-05-07T11:42:29;98261.97;;;24.27;nan
29733;BME280;16643;43.158;25.302;2023-05-07T11:44:55;98275.25;;;24.27;nan
29733;BME280;16643;43.158;25.302;2023-05-07T11:47:21;98250.09;;;23.67;nan
29733;BME280;16643;43.158;25.302;2023-05-07T11:49:48;98263.72;;;24.06;nan
29733;BME280;16643;43.158;25.302;2023-05-07T11:52:15;98237.75;;;24.09;nan
29733;BME280;16643;43.158;25.302;2023-05-07T11:54:40;98253.63;;;24.32;nan
29733;BME280;16643;43.158;25.302;2023-05-07T11:57:06;98238.00;;;24.38;nan
29733;BME280;16643;43.158;25.302;2023-05-07T11:59:39;98229.94;;;24.49;nan
29733;BME280;16643;43.158;25.302;2023-05-07T12:02:09;98224.44;;;24.41;nan
29733;BME280;16643;43.158;25.302;2023-05-07T12:04:35;98235.63;;;24.35;nan
29733;BME280;16643;43.158;25.302;2023-05-07T12:07:01;98232.50;;;23.98;nan
29733;BME280;16643;43.158;25.302;2023-05-07T12:09:27;98226.69;;;23.61;nan
29733;BME280;16643;43.158;25.302;2023-05-07T12:11:52;98222.50;;;23.91;nan
29733;BME280;16643;43.158;25.302;2023-05-07T12:14:18;98227.91;;;24.21;nan
29733;BME280;16643;43.158;25.302;2023-05-07T12:16:44;98220.22;;;24.39;nan
29733;BME280;16643;43.158;25.302;2023-05-07T12:19:11;98209.44;;;24.61;nan
29733;BME280;16643;43.158;25.302;2023-05-07T12:21:40;98229.63;;;24.43;nan
29733;BME280;16643;43.158;25.302;2023-05-07T12:24:06;98209.09;;;23.92;nan
29733;BME280;16643;43.158;25.302;2023-05-07T12:26:37;98225.44;;;24.08;nan
29733;BME280;16643;43.158;25.302;2023-05-07T12:29:03;98210.53;;;24.17;nan
29733;BME280;16643;43.158;25.302;2023-05-07T12:31:29;98205.59;;;24.23;nan
29733;BME280;16643;43.158;25.302;2023-05-07T12:33:55;98183.41;;;24.34;nan
29733;BME280;16643;43.158;25.302;2023-05-07T12:36:21;98211.75;;;24.45;nan
29733;BME280;16643;43.158;25.302;2023-05-07T12:38:49;98200.78;;;24.59;nan
29733;BME280;16643;43.158;25.302;2023-05-07T12:41:15;98213.03;;;24.71;nan
29733;BME280;16643;43.158;25.302;2023-05-07T12:43:44;98202.25;;;24.52;nan
29733;BME280;16643;43.158;25.302;2023-05-07T12:46:11;98166.50;;;23.82;nan
29733;BME280;16643;43.158;25.302;2023-05-07T12:48:45;98197.50;;;24.46;nan
29733;BME280;16643;43.158;25.302;2023-05-07T12:51:11;98242.50;;;24.38;nan
29733;BME280;16643;43.158;25.302;2023-05-07T12:53:42;98199.13;;;23.73;nan
29733;BME280;16643;43.158;25.302;2023-05-07T12:56:08;98201.31;;;23.79;nan
29733;BME280;16643;43.158;25.302;2023-05-07T12:58:35;98208.22;;;23.48;nan
29733;BME280;16643;43.158;25.302;2023-05-07T13:01:06;98192.38;;;23.80;nan
29733;BME280;16643;43.158;25.302;2023-05-07T13:03:33;98216.94;;;24.26;nan
29733;BME280;16643;43.158;25.302;2023-05-07T13:06:04;98214.59;;;24.53;nan
29733;BME280;16643;43.158;25.302;2023-05-07T13:11:01;98211.09;;;23.79;nan
29733;BME280;16643;43.158;25.302;2023-05-07T13:13:34;98188.75;;;23.81;nan
29733;BME280;16643;43.158;25.302;2023-05-07T13:16:01;98215.22;;;23.61;nan
29733;BME280;16643;43.158;25.302;2023-05-07T13:18:29;98193.81;;;23.19;nan
29733;BME280;16643;43.158;25.302;2023-05-07T13:20:55;98196.44;;;23.41;nan
29733;BME280;16643;43.158;25.302;2023-05-07T13:23:21;98173.63;;;23.39;nan
29733;BME280;16643;43.158;25.302;2023-05-07T13:25:47;98176.53;;;23.47;nan
29733;BME280;16643;43.158;25.302;2023-05-07T13:28:13;98145.16;;;23.52;nan